createdAt,value
2023-04-02T00:01:52.295Z,33.71
2023-04-02T00:04:22.537Z,33.79
2023-04-02T00:07:19.162Z,33.69
2023-04-02T00:09:46.395Z,33.83
2023-04-02T00:12:18.269Z,33.77
2023-04-02T00:14:54.402Z,33.71
2023-04-02T00:17:24.576Z,33.57
2023-04-02T00:19:57.384Z,33.69
2023-04-02T00:22:28.781Z,33.80
2023-04-02T00:24:56.507Z,33.63
2023-04-02T00:27:23.707Z,33.72
2023-04-02T00:29:52.648Z,33.54
2023-04-02T00:32:24.589Z,33.52
2023-04-02T00:34:53.358Z,33.72
2023-04-02T00:37:27.987Z,33.70
2023-04-02T00:40:00.798Z,33.67
2023-04-02T00:42:31.144Z,33.74
2023-04-02T00:44:59.080Z,33.71
2023-04-02T00:47:31.872Z,33.67
2023-04-02T00:50:06.097Z,33.58
2023-04-02T00:52:35.375Z,33.72
2023-04-02T00:55:06.577Z,33.66
2023-04-02T00:57:34.457Z,33.70
2023-04-02T01:00:15.848Z,33.70
2023-04-02T01:02:42.940Z,33.45
2023-04-02T01:05:23.247Z,33.64
2023-04-02T01:08:04.104Z,33.56
2023-04-02T01:10:47.429Z,33.51
2023-04-02T01:13:23.898Z,33.62
2023-04-02T01:15:58.756Z,33.51
2023-04-02T01:18:36.822Z,33.62
2023-04-02T01:21:17.875Z,33.49
2023-04-02T01:23:53.833Z,33.55
2023-04-02T01:26:28.943Z,33.48
2023-04-02T01:29:03.059Z,33.44
2023-04-02T01:31:33.268Z,33.65
2023-04-02T01:34:02.391Z,33.46
2023-04-02T01:36:39.153Z,33.40
2023-04-02T01:39:17.789Z,33.75
2023-04-02T01:41:50.695Z,33.56
2023-04-02T01:44:25.031Z,33.63
2023-04-02T01:46:52.768Z,33.55
2023-04-02T01:49:22.146Z,33.57
2023-04-02T01:51:53.119Z,33.62
2023-04-02T01:54:21.914Z,33.66
2023-04-02T01:56:49.709Z,33.42
2023-04-02T01:59:22.175Z,33.28
2023-04-02T02:01:57.349Z,33.19
2023-04-02T02:04:24.677Z,33.16
2023-04-02T02:06:51.837Z,33.18
2023-04-02T02:09:26.151Z,33.24
2023-04-02T02:11:53.176Z,33.25
2023-04-02T02:14:23.254Z,33.26
2023-04-02T02:16:50.690Z,33.05
2023-04-02T02:19:24.705Z,33.25
2023-04-02T02:21:54.189Z,33.26
2023-04-02T02:24:24.203Z,33.20
2023-04-02T02:27:03.772Z,33.19
2023-04-02T02:29:37.130Z,33.12
2023-04-02T02:32:06.842Z,33.30
2023-04-02T02:34:38.826Z,33.35
2023-04-02T02:37:12.305Z,33.35
2023-04-02T02:39:43.181Z,33.23
2023-04-02T02:42:16.158Z,33.29
2023-04-02T02:44:48.254Z,33.24
2023-04-02T02:47:18.650Z,33.15
2023-04-02T02:49:50.032Z,33.11
2023-04-02T02:52:21.478Z,33.26
2023-04-02T02:54:58.258Z,33.28
2023-04-02T02:57:32.249Z,33.22
2023-04-02T03:00:02.330Z,33.16
2023-04-02T03:02:35.352Z,33.23
2023-04-02T03:05:03.097Z,33.18
2023-04-02T03:07:31.773Z,33.27
2023-04-02T03:10:05.670Z,33.47
2023-04-02T03:12:44.097Z,33.29
2023-04-02T03:15:22.914Z,33.25
2023-04-02T03:17:57.529Z,33.47
2023-04-02T03:20:31.687Z,33.53
2023-04-02T03:23:07.290Z,33.21
2023-04-02T03:25:41.012Z,33.22
2023-04-02T03:28:19.697Z,33.34
2023-04-02T03:30:52.988Z,33.26
2023-04-02T03:33:25.500Z,33.35
2023-04-02T03:35:59.951Z,33.31
2023-04-02T03:38:29.684Z,33.30
2023-04-02T03:41:05.154Z,33.23
2023-04-02T03:43:39.701Z,33.35
2023-04-02T03:46:22.144Z,33.44
2023-04-02T03:48:51.829Z,33.16
2023-04-02T03:51:23.589Z,33.40
2023-04-02T03:53:50.930Z,33.43
2023-04-02T03:56:28.510Z,33.42
2023-04-02T03:59:07.953Z,33.41
2023-04-02T04:01:42.466Z,33.32
2023-04-02T04:04:14.969Z,33.59
2023-04-02T04:06:44.902Z,33.37
2023-04-02T04:09:19.718Z,33.34
2023-04-02T04:11:51.720Z,33.41
2023-04-02T04:14:27.548Z,33.51
2023-04-02T04:17:04.419Z,33.37
2023-04-02T04:19:40.431Z,33.29
2023-04-02T04:22:14.435Z,33.52
2023-04-02T04:24:45.867Z,33.38
2023-04-02T04:27:21.512Z,33.30
2023-04-02T04:29:55.680Z,33.42
2023-04-02T04:32:32.495Z,33.46
2023-04-02T04:35:15.911Z,33.51
2023-04-02T04:37:49.693Z,33.56
2023-04-02T04:40:23.808Z,33.54
2023-04-02T04:42:58.242Z,33.56
2023-04-02T04:45:42.625Z,33.23
2023-04-02T04:48:19.125Z,33.38
2023-04-02T04:50:51.779Z,33.33
2023-04-02T04:53:22.217Z,33.32
2023-04-02T04:55:54.164Z,33.38
2023-04-02T04:58:24.324Z,33.39
2023-04-02T05:01:01.862Z,33.44
2023-04-02T05:03:38.021Z,33.45
2023-04-02T05:06:12.641Z,33.37
2023-04-02T05:08:45.428Z,33.43
2023-04-02T05:11:20.107Z,33.40
2023-04-02T05:13:52.548Z,33.36
2023-04-02T05:16:27.222Z,33.46
2023-04-02T05:19:03.827Z,33.44
2023-04-02T05:21:40.652Z,33.58
2023-04-02T05:24:35.641Z,33.53
2023-04-02T05:27:12.277Z,33.53
2023-04-02T05:29:44.387Z,33.70
2023-04-02T05:32:17.589Z,33.58
2023-04-02T05:34:51.710Z,33.50
2023-04-02T05:37:21.459Z,33.27
2023-04-02T05:39:52.358Z,33.33
2023-04-02T05:42:23.596Z,33.36
2023-04-02T05:45:06.974Z,33.37
2023-04-02T05:47:40.868Z,32.95
2023-04-02T05:50:19.084Z,33.18
2023-04-02T05:52:51.794Z,33.09
2023-04-02T05:55:33.057Z,33.12
2023-04-02T05:58:25.575Z,32.77
2023-04-02T06:01:21.080Z,32.99
2023-04-02T06:03:57.475Z,32.72
2023-04-02T06:06:46.355Z,32.79
2023-04-02T06:09:19.838Z,32.73
2023-04-02T06:11:51.461Z,32.56
2023-04-02T06:14:19.382Z,32.57
2023-04-02T06:16:48.082Z,32.35
2023-04-02T06:19:19.066Z,32.56
2023-04-02T06:21:49.939Z,32.32
2023-04-02T06:24:24.416Z,32.85
2023-04-02T06:26:57.725Z,32.58
2023-04-02T06:29:31.607Z,32.23
2023-04-02T06:32:00.795Z,32.35
2023-04-02T06:34:30.776Z,32.42
2023-04-02T06:37:19.618Z,32.37
2023-04-02T06:39:47.558Z,32.17
2023-04-02T06:42:19.413Z,32.22
2023-04-02T06:45:23.142Z,32.28
2023-04-02T06:48:17.261Z,32.40
2023-04-02T06:50:49.366Z,32.21
2023-04-02T06:53:21.530Z,32.17
2023-04-02T06:55:52.688Z,32.43
2023-04-02T06:58:24.133Z,32.25
2023-04-02T07:00:52.435Z,32.38
2023-04-02T07:03:29.979Z,32.24
2023-04-02T07:06:02.765Z,32.19
2023-04-02T07:08:32.117Z,32.16
2023-04-02T07:10:59.078Z,32.24
2023-04-02T07:13:26.469Z,32.21
2023-04-02T07:15:55.075Z,32.06
2023-04-02T07:18:26.529Z,31.93
2023-04-02T07:20:53.870Z,32.31
2023-04-02T07:23:21.239Z,32.31
2023-04-02T07:25:50.333Z,32.23
2023-04-02T07:28:17.416Z,32.04
2023-04-02T07:30:45.463Z,32.00
2023-04-02T07:33:14.057Z,32.17
2023-04-02T07:35:41.260Z,31.98
2023-04-02T07:38:08.321Z,32.22
2023-04-02T07:40:35.715Z,32.52
2023-04-02T07:43:04.076Z,32.30
2023-04-02T07:45:31.492Z,31.97
2023-04-02T07:47:58.746Z,31.94
2023-04-02T07:50:25.650Z,32.25
2023-04-02T07:52:52.450Z,32.11
2023-04-02T07:55:19.265Z,32.08
2023-04-02T07:57:49.444Z,32.33
2023-04-02T08:00:18.669Z,32.20
2023-04-02T08:02:45.873Z,32.28
2023-04-02T08:05:13.266Z,32.15
2023-04-02T08:07:40.365Z,32.52
2023-04-02T08:10:09.162Z,32.35
2023-04-02T08:12:36.532Z,32.23
2023-04-02T08:15:05.767Z,32.27
2023-04-02T08:17:34.016Z,32.57
2023-04-02T08:20:01.999Z,32.12
2023-04-02T08:22:29.411Z,32.62
2023-04-02T08:24:56.725Z,32.24
2023-04-02T08:27:23.649Z,32.25
2023-04-02T08:29:50.950Z,32.12
2023-04-02T08:32:18.225Z,32.28
2023-04-02T08:34:46.582Z,32.07
2023-04-02T08:37:13.782Z,31.98
2023-04-02T08:39:41.346Z,32.51
2023-04-02T08:42:24.001Z,32.16
2023-04-02T08:45:22.967Z,32.15
2023-04-02T08:47:52.073Z,32.28
2023-04-02T08:50:29.264Z,32.15
2023-04-02T08:52:56.991Z,32.39
2023-04-02T08:55:32.935Z,31.71
2023-04-02T08:58:08.631Z,31.80
2023-04-02T09:00:38.192Z,32.35
2023-04-02T09:03:10.927Z,32.09
2023-04-02T09:05:42.291Z,31.99
2023-04-02T09:08:16.435Z,31.88
2023-04-02T09:10:51.618Z,32.10
2023-04-02T09:13:23.877Z,32.19
2023-04-02T09:15:56.573Z,31.84
2023-04-02T09:18:23.535Z,31.69
2023-04-02T09:20:51.766Z,31.83
2023-04-02T09:23:23.064Z,32.14
2023-04-02T09:26:03.546Z,32.15
2023-04-02T09:28:31.385Z,31.54
2023-04-02T09:31:06.982Z,31.86
2023-04-02T09:33:45.272Z,32.13
2023-04-02T09:36:35.971Z,31.87
2023-04-02T09:39:07.185Z,32.34
2023-04-02T09:41:37.096Z,31.98
2023-04-02T09:44:20.239Z,32.08
2023-04-02T09:46:53.059Z,32.00
2023-04-02T09:49:25.207Z,31.95
2023-04-02T09:52:19.819Z,31.70
2023-04-02T09:54:47.748Z,32.04
2023-04-02T09:57:23.712Z,32.02
2023-04-02T10:00:25.353Z,31.98
2023-04-02T10:03:04.791Z,32.07
2023-04-02T10:05:40.678Z,32.38
2023-04-02T10:08:20.056Z,31.91
2023-04-02T10:10:50.561Z,32.14
2023-04-02T10:13:23.015Z,32.28
2023-04-02T10:15:56.273Z,32.04
2023-04-02T10:18:33.462Z,32.17
2023-04-02T10:21:03.494Z,32.08
2023-04-02T10:23:32.296Z,32.18
2023-04-02T10:26:12.150Z,32.65
2023-04-02T10:29:08.056Z,32.57
2023-04-02T10:31:47.713Z,32.55
2023-04-02T10:34:23.529Z,32.64
2023-04-02T10:36:54.726Z,32.76
2023-04-02T10:39:29.647Z,32.38
2023-04-02T10:42:06.527Z,32.54
2023-04-02T10:44:43.499Z,32.47
2023-04-02T10:47:33.987Z,32.14
2023-04-02T10:50:18.533Z,32.12
2023-04-02T10:52:56.457Z,32.23
2023-04-02T10:55:28.998Z,32.53
2023-04-02T10:57:59.706Z,32.38
2023-04-02T11:00:29.175Z,32.34
2023-04-02T11:03:02.338Z,32.54
2023-04-02T11:05:40.313Z,32.47
2023-04-02T11:08:16.984Z,32.52
2023-04-02T11:10:48.789Z,32.32
2023-04-02T11:13:22.923Z,32.67
2023-04-02T11:15:50.734Z,32.68
2023-04-02T11:18:24.695Z,32.66
2023-04-02T11:21:00.532Z,32.60
2023-04-02T11:23:30.624Z,32.27
2023-04-02T11:26:35.271Z,32.49
2023-04-02T11:29:08.164Z,32.48
2023-04-02T11:31:35.195Z,32.54
2023-04-02T11:34:02.025Z,32.84
2023-04-02T11:37:01.715Z,32.74
2023-04-02T11:39:54.028Z,32.71
2023-04-02T11:42:30.419Z,32.55
2023-04-02T11:45:01.616Z,32.78
2023-04-02T11:47:30.433Z,32.96
2023-04-02T11:50:05.952Z,32.63
2023-04-02T11:52:38.017Z,32.56
2023-04-02T11:55:24.178Z,33.01
2023-04-02T11:58:25.396Z,32.70
2023-04-02T12:01:20.960Z,32.77
2023-04-02T12:04:12.132Z,32.87
2023-04-02T12:06:54.958Z,32.91
2023-04-02T12:09:23.803Z,33.13
2023-04-02T12:11:52.732Z,32.92
2023-04-02T12:14:41.563Z,33.20
2023-04-02T12:17:18.443Z,33.13
2023-04-02T12:19:51.121Z,33.04
2023-04-02T12:22:23.797Z,33.00
2023-04-02T12:24:53.636Z,33.12
2023-04-02T12:27:27.622Z,33.33
2023-04-02T12:29:57.229Z,33.05
2023-04-02T12:32:29.561Z,33.09
2023-04-02T12:34:58.145Z,33.41
2023-04-02T12:37:27.024Z,33.40
2023-04-02T12:39:56.496Z,32.92
2023-04-02T12:42:31.758Z,33.23
2023-04-02T12:45:00.675Z,33.40
2023-04-02T12:47:28.478Z,33.43
2023-04-02T12:49:57.489Z,33.32
2023-04-02T12:52:28.792Z,33.32
2023-04-02T12:54:57.372Z,33.18
2023-04-02T12:57:39.577Z,33.31
2023-04-02T13:00:31.748Z,33.57
2023-04-02T13:03:17.006Z,33.51
2023-04-02T13:05:47.164Z,33.42
2023-04-02T13:08:20.350Z,33.46
2023-04-02T13:10:53.640Z,33.40
2023-04-02T13:13:24.958Z,33.45
2023-04-02T13:16:02.614Z,33.19
2023-04-02T13:18:31.928Z,33.32
2023-04-02T13:20:59.833Z,33.74
2023-04-02T13:23:37.494Z,33.52
2023-04-02T13:26:17.478Z,33.69
2023-04-02T13:28:56.335Z,33.39
2023-04-02T13:31:24.916Z,33.76
2023-04-02T13:33:51.792Z,33.86
2023-04-02T13:36:18.634Z,33.79
2023-04-02T13:38:45.482Z,33.76
2023-04-02T13:41:20.902Z,33.81
2023-04-02T13:43:47.901Z,33.81
2023-04-02T13:46:21.247Z,33.65
2023-04-02T13:48:50.377Z,33.43
2023-04-02T13:51:19.024Z,33.68
2023-04-02T13:53:47.589Z,33.62
2023-04-02T13:56:14.480Z,33.42
2023-04-02T13:58:41.354Z,33.71
2023-04-02T14:01:09.377Z,33.82
2023-04-02T14:03:36.659Z,33.41
2023-04-02T14:06:15.283Z,33.55
2023-04-02T14:08:57.222Z,33.81
2023-04-02T14:11:35.974Z,33.40
2023-04-02T14:14:20.541Z,33.43
2023-04-02T14:17:01.009Z,33.54
2023-04-02T14:19:43.644Z,33.51
2023-04-02T14:22:21.244Z,33.62
2023-04-02T14:24:55.962Z,33.39
2023-04-02T14:27:33.422Z,33.61
2023-04-02T14:30:08.275Z,33.53
2023-04-02T14:32:44.634Z,33.53
2023-04-02T14:35:21.092Z,33.45
2023-04-02T14:37:56.489Z,33.75
2023-04-02T14:40:29.581Z,33.45
2023-04-02T14:43:00.686Z,33.73
2023-04-02T14:45:42.250Z,33.88
2023-04-02T14:48:15.341Z,33.77
2023-04-02T14:50:42.806Z,33.87
2023-04-02T14:53:17.571Z,33.79
2023-04-02T14:55:47.286Z,33.95
2023-04-02T14:58:19.752Z,33.65
2023-04-02T15:00:56.193Z,33.97
2023-04-02T15:03:25.928Z,33.94
2023-04-02T15:05:56.751Z,33.63
2023-04-02T15:08:28.942Z,33.83
2023-04-02T15:11:04.993Z,33.99
2023-04-02T15:13:38.231Z,33.84
2023-04-02T15:16:11.477Z,33.90
2023-04-02T15:18:38.581Z,34.03
2023-04-02T15:21:29.401Z,34.13
2023-04-02T15:24:04.187Z,34.09
2023-04-02T15:26:39.812Z,33.86
2023-04-02T15:29:28.381Z,33.93
2023-04-02T15:32:07.512Z,33.85
2023-04-02T15:34:40.070Z,33.83
2023-04-02T15:37:17.477Z,33.86
2023-04-02T15:40:07.965Z,33.75
2023-04-02T15:42:39.280Z,33.58
2023-04-02T15:45:22.799Z,33.83
2023-04-02T15:48:11.015Z,33.87
2023-04-02T15:50:51.487Z,34.25
2023-04-02T15:53:30.722Z,34.18
2023-04-02T15:56:09.373Z,33.91
2023-04-02T15:58:50.790Z,34.15
2023-04-02T16:01:22.025Z,33.89
2023-04-02T16:04:21.837Z,33.91
2023-04-02T16:07:12.415Z,33.80
2023-04-02T16:09:49.539Z,34.07
2023-04-02T16:12:19.910Z,33.90
2023-04-02T16:14:48.458Z,34.06
2023-04-02T16:17:24.953Z,34.25
2023-04-02T16:19:56.927Z,34.18
2023-04-02T16:22:28.357Z,34.07
2023-04-02T16:24:58.049Z,33.83
2023-04-02T16:27:31.751Z,33.88
2023-04-02T16:30:09.332Z,33.87
2023-04-02T16:32:56.678Z,34.02
2023-04-02T16:35:42.771Z,33.99
2023-04-02T16:38:21.378Z,33.98
2023-04-02T16:41:07.498Z,33.97
2023-04-02T16:43:49.562Z,34.08
2023-04-02T16:46:38.050Z,34.03
2023-04-02T16:49:17.369Z,33.72
2023-04-02T16:51:52.596Z,34.59
2023-04-02T16:54:26.192Z,34.42
2023-04-02T16:57:07.825Z,34.20
2023-04-02T16:59:43.549Z,33.78
2023-04-02T17:02:24.325Z,33.77
2023-04-02T17:05:04.938Z,33.79
2023-04-02T17:07:35.721Z,33.94
2023-04-02T17:10:30.158Z,33.91
2023-04-02T17:13:03.229Z,33.83
2023-04-02T17:15:36.965Z,33.81
2023-04-02T17:18:11.022Z,33.97
2023-04-02T17:20:38.278Z,33.63
2023-04-02T17:23:05.879Z,34.22
2023-04-02T17:25:37.838Z,33.92
2023-04-02T17:28:12.598Z,33.72
2023-04-02T17:30:44.795Z,34.03
2023-04-02T17:33:12.523Z,33.73
2023-04-02T17:35:53.260Z,33.83
2023-04-02T17:38:28.484Z,33.65
2023-04-02T17:41:08.051Z,33.72
2023-04-02T17:43:46.115Z,33.73
2023-04-02T17:46:24.423Z,33.91
2023-04-02T17:49:00.774Z,33.91
2023-04-02T17:51:35.668Z,33.86
2023-04-02T17:54:17.855Z,33.77
2023-04-02T17:57:00.380Z,34.16
2023-04-02T17:59:44.078Z,34.04
2023-04-02T18:02:35.493Z,34.04
2023-04-02T18:05:14.543Z,33.82
2023-04-02T18:07:50.022Z,33.66
2023-04-02T18:10:23.523Z,33.70
2023-04-02T18:13:06.250Z,33.34
2023-04-02T18:15:46.173Z,33.11
2023-04-02T18:18:30.759Z,33.15
2023-04-02T18:21:08.068Z,33.52
2023-04-02T18:23:48.160Z,33.21
2023-04-02T18:26:22.454Z,33.39
2023-04-02T18:29:01.507Z,32.97
2023-04-02T18:31:38.026Z,33.24
2023-04-02T18:34:23.446Z,33.07
2023-04-02T18:37:05.001Z,33.16
2023-04-02T18:39:45.716Z,33.14
2023-04-02T18:42:36.123Z,32.77
2023-04-02T18:45:11.892Z,33.17
2023-04-02T18:47:47.020Z,32.90
2023-04-02T18:50:18.584Z,32.76
2023-04-02T18:52:45.944Z,33.28
2023-04-02T18:55:19.998Z,32.97
2023-04-02T18:57:51.469Z,32.91
2023-04-02T19:00:29.058Z,32.97
2023-04-02T19:03:01.816Z,32.84
2023-04-02T19:05:40.537Z,32.63
2023-04-02T19:08:16.504Z,32.58
2023-04-02T19:10:45.059Z,32.55
2023-04-02T19:13:16.311Z,32.80
2023-04-02T19:16:03.765Z,32.83
2023-04-02T19:18:39.462Z,32.87
2023-04-02T19:21:21.499Z,32.61
2023-04-02T19:24:02.977Z,32.70
2023-04-02T19:26:35.018Z,32.72
2023-04-02T19:29:16.630Z,32.61
2023-04-02T19:31:53.629Z,32.66
2023-04-02T19:34:27.691Z,32.51
2023-04-02T19:37:02.075Z,32.58
2023-04-02T19:39:58.884Z,32.50
2023-04-02T19:42:43.595Z,32.78
2023-04-02T19:45:27.279Z,32.73
2023-04-02T19:47:55.324Z,32.63
2023-04-02T19:50:22.573Z,32.56
2023-04-02T19:52:51.284Z,32.42
2023-04-02T19:55:18.138Z,32.37
2023-04-02T19:57:45.195Z,32.41
2023-04-02T20:00:14.283Z,32.10
2023-04-02T20:02:41.402Z,32.48
2023-04-02T20:05:08.917Z,32.47
2023-04-02T20:07:36.097Z,32.48
2023-04-02T20:10:04.868Z,32.29
2023-04-02T20:12:31.746Z,32.50
2023-04-02T20:14:58.617Z,32.44
2023-04-02T20:17:25.560Z,32.35
2023-04-02T20:19:52.431Z,32.56
2023-04-02T20:22:19.409Z,32.51
2023-04-02T20:24:46.219Z,32.38
2023-04-02T20:27:14.435Z,32.59
2023-04-02T20:29:42.468Z,32.57
2023-04-02T20:32:09.844Z,32.51
2023-04-02T20:34:36.815Z,32.76
2023-04-02T20:37:03.744Z,32.69
2023-04-02T20:39:30.593Z,32.78
2023-04-02T20:42:01.228Z,32.57
2023-04-02T20:44:29.553Z,32.62
2023-04-02T20:46:56.453Z,32.62
2023-04-02T20:49:23.370Z,32.78
2023-04-02T20:51:50.167Z,32.56
2023-04-02T20:54:16.978Z,32.48
2023-04-02T20:56:44.682Z,32.51
2023-04-02T20:59:11.720Z,32.40
2023-04-02T21:01:39.931Z,32.28
2023-04-02T21:04:06.905Z,32.59
2023-04-02T21:06:35.324Z,32.59
2023-04-02T21:09:04.431Z,32.39
2023-04-02T21:11:32.608Z,32.41
2023-04-02T21:13:59.451Z,32.35
2023-04-02T21:16:28.864Z,32.38
2023-04-02T21:18:59.652Z,32.33
2023-04-02T21:21:26.975Z,32.32
2023-04-02T21:23:54.823Z,32.52
2023-04-02T21:26:21.805Z,32.11
2023-04-02T21:28:48.680Z,32.24
2023-04-02T21:31:17.701Z,32.17
2023-04-02T21:33:47.046Z,32.24
2023-04-02T21:36:17.177Z,32.16
2023-04-02T21:38:44.922Z,32.37
2023-04-02T21:41:13.631Z,32.09
2023-04-02T21:43:40.520Z,32.10
2023-04-02T21:46:07.384Z,32.28
2023-04-02T21:48:34.241Z,32.10
2023-04-02T21:51:08.895Z,32.18
2023-04-02T21:53:38.249Z,32.17
2023-04-02T21:56:07.238Z,32.06
2023-04-02T21:58:34.810Z,32.30
2023-04-02T22:01:02.775Z,32.19
2023-04-02T22:03:32.092Z,32.20
2023-04-02T22:06:06.675Z,32.31
2023-04-02T22:08:33.971Z,32.12
2023-04-02T22:11:10.845Z,32.01
2023-04-02T22:13:38.981Z,32.14
2023-04-02T22:16:10.421Z,32.47
2023-04-02T22:18:37.993Z,32.10
2023-04-02T22:21:05.762Z,32.17
2023-04-02T22:23:32.932Z,32.17
2023-04-02T22:26:00.866Z,32.16
2023-04-02T22:28:29.533Z,32.02
2023-04-02T22:31:03.168Z,31.90
2023-04-02T22:33:32.357Z,31.96
2023-04-02T22:35:59.774Z,32.05
2023-04-02T22:38:26.968Z,31.88
2023-04-02T22:41:03.327Z,31.80
2023-04-02T22:43:31.800Z,31.85
2023-04-02T22:45:58.728Z,31.83
2023-04-02T22:48:25.600Z,31.90
2023-04-02T22:50:52.498Z,31.88
2023-04-02T22:53:19.820Z,31.79
2023-04-02T22:55:46.779Z,31.77
2023-04-02T22:58:13.593Z,31.63
2023-04-02T23:00:42.054Z,31.75
2023-04-02T23:03:09.068Z,31.62
2023-04-02T23:05:35.942Z,31.66
2023-04-02T23:08:03.101Z,31.57
2023-04-02T23:10:33.987Z,31.51
2023-04-02T23:13:01.058Z,31.52
2023-04-02T23:15:27.837Z,31.59
2023-04-02T23:17:56.072Z,31.69
2023-04-02T23:20:22.956Z,31.26
2023-04-02T23:22:49.815Z,31.17
2023-04-02T23:25:17.017Z,31.31
2023-04-02T23:27:43.838Z,31.22
2023-04-02T23:30:11.042Z,31.01
2023-04-02T23:32:37.924Z,31.11
2023-04-02T23:35:06.649Z,31.45
2023-04-02T23:37:33.427Z,31.31
2023-04-02T23:40:00.380Z,31.32
2023-04-02T23:42:28.025Z,31.32
2023-04-02T23:44:55.504Z,31.14
2023-04-02T23:47:22.300Z,31.13
2023-04-02T23:49:49.141Z,31.11
2023-04-02T23:52:17.326Z,31.43
2023-04-02T23:54:44.181Z,31.25
2023-04-02T23:57:11.371Z,31.42
2023-04-02T23:59:38.201Z,31.32
